Time;durP1;ratioP1;P1;durP2;ratioP2;P2;SDS_P1;SDS_P2;PMS_P1;PMS_P2;Temp;Humidity;BMP_temperature;BMP_pressure;BME280_temperature;BME280_humidity;BME280_pressure;Samples;Min_cycle;Max_cycle;Signal;HPM_P1;HPM_P2
2023/02/25 00:00:53;;;;;;;1.67;1.40;;;4.70;98.20;;;;;;5005460;28;20484;-79
2023/02/25 00:03:20;;;;;;;1.67;1.40;;;4.70;98.20;;;;;;5004070;28;20501;-78
2023/02/25 00:05:46;;;;;;;1.67;1.40;;;4.60;98.20;;;;;;5007087;28;20464;-76
2023/02/25 00:08:15;;;;;;;1.70;1.40;;;4.70;98.20;;;;;;5006211;28;20463;-78
2023/02/25 00:10:43;;;;;;;1.60;1.40;;;4.70;98.20;;;;;;5007457;28;20515;-77
2023/02/25 00:13:11;;;;;;;1.63;1.40;;;4.70;98.20;;;;;;4998173;28;20464;-78
2023/02/25 00:15:41;;;;;;;1.70;1.40;;;4.70;98.20;;;;;;5007721;28;20460;-78
2023/02/25 00:18:08;;;;;;;1.67;1.40;;;4.70;98.20;;;;;;5004994;28;20476;-78
2023/02/25 00:20:35;;;;;;;1.67;1.30;;;4.70;98.20;;;;;;5007052;28;20496;-77
2023/02/25 00:23:01;;;;;;;1.67;1.30;;;4.70;98.20;;;;;;5007207;28;21178;-78
2023/02/25 00:25:28;;;;;;;1.67;1.40;;;4.70;98.20;;;;;;5006584;28;20522;-76
2023/02/25 00:27:57;;;;;;;1.60;1.30;;;4.70;98.20;;;;;;5004551;28;20849;-77
2023/02/25 00:30:24;;;;;;;1.60;1.30;;;4.70;98.20;;;;;;5010874;28;20961;-80
2023/02/25 00:32:51;;;;;;;1.70;1.50;;;4.70;98.20;;;;;;5009837;28;20510;-76
2023/02/25 00:35:18;;;;;;;1.67;1.40;;;4.70;98.20;;;;;;5011189;28;20466;-77
2023/02/25 00:37:45;;;;;;;1.63;1.30;;;4.70;98.20;;;;;;5010622;28;20483;-76
2023/02/25 00:40:14;;;;;;;1.67;1.33;;;4.60;98.20;;;;;;5002840;28;20529;-76
2023/02/25 00:42:42;;;;;;;1.67;1.30;;;4.60;98.20;;;;;;5010826;28;21001;-76
2023/02/25 00:45:11;;;;;;;2.27;2.07;;;4.60;98.20;;;;;;5009148;28;20518;-76
2023/02/25 00:47:39;;;;;;;1.63;1.40;;;4.60;98.20;;;;;;5009429;28;21011;-78
2023/02/25 00:50:08;;;;;;;1.67;1.40;;;4.60;98.20;;;;;;5009946;28;20467;-76
2023/02/25 00:52:36;;;;;;;1.60;1.33;;;4.60;98.20;;;;;;5010392;28;20496;-76
2023/02/25 00:55:03;;;;;;;1.70;1.40;;;4.60;98.20;;;;;;5009509;28;20554;-76
2023/02/25 00:57:30;;;;;;;1.70;1.53;;;4.60;98.20;;;;;;5008725;28;20480;-77
2023/02/25 00:59:57;;;;;;;1.60;1.30;;;4.60;98.20;;;;;;5009299;28;20502;-77
2023/02/25 01:02:26;;;;;;;1.70;1.40;;;4.60;98.20;;;;;;5009724;28;20485;-77
2023/02/25 01:04:53;;;;;;;1.60;1.30;;;4.50;98.20;;;;;;5008506;28;20954;-77
2023/02/25 01:07:20;;;;;;;1.67;1.30;;;4.50;98.20;;;;;;5015140;28;20484;-78
2023/02/25 01:09:47;;;;;;;1.60;1.30;;;4.40;98.20;;;;;;5009204;28;20464;-78
2023/02/25 01:12:14;;;;;;;1.67;1.30;;;4.40;98.20;;;;;;5008081;28;20562;-78
2023/02/25 01:14:42;;;;;;;1.70;1.40;;;4.40;98.20;;;;;;5009929;28;20464;-78
2023/02/25 01:17:09;;;;;;;1.63;1.40;;;4.40;98.20;;;;;;5008689;28;21067;-77
2023/02/25 01:19:38;;;;;;;1.60;1.30;;;4.40;98.20;;;;;;5010246;28;20546;-77
2023/02/25 01:22:05;;;;;;;1.67;1.37;;;4.40;98.20;;;;;;5008994;28;20495;-77
2023/02/25 01:24:33;;;;;;;1.67;1.40;;;4.40;98.20;;;;;;5009769;28;20464;-77
2023/02/25 01:27:01;;;;;;;1.70;1.53;;;4.40;98.20;;;;;;5005757;28;21059;-78
2023/02/25 01:29:31;;;;;;;1.70;1.40;;;4.40;98.20;;;;;;5003130;28;20522;-78
2023/02/25 01:32:01;;;;;;;1.70;1.47;;;4.40;98.20;;;;;;5008641;28;20594;-77
2023/02/25 01:34:28;;;;;;;1.70;1.43;;;4.40;98.20;;;;;;5009035;28;20495;-78
2023/02/25 01:36:57;;;;;;;1.70;1.50;;;4.40;98.20;;;;;;5006959;28;20494;-77
2023/02/25 01:39:25;;;;;;;1.70;1.40;;;4.40;98.20;;;;;;5009515;28;20467;-77
2023/02/25 01:41:54;;;;;;;1.70;1.50;;;4.40;98.20;;;;;;5007395;28;20480;-77
2023/02/25 01:44:23;;;;;;;1.70;1.40;;;4.40;98.20;;;;;;5008809;28;20534;-77
2023/02/25 01:46:52;;;;;;;1.67;1.40;;;4.40;98.20;;;;;;5007133;28;20464;-80
2023/02/25 01:49:27;;;;;;;1.60;1.37;;;4.40;98.20;;;;;;5009440;28;20456;-77
2023/02/25 01:52:01;;;;;;;1.60;1.30;;;4.40;98.20;;;;;;5008634;28;20849;-76
2023/02/25 01:54:28;;;;;;;1.70;1.50;;;4.40;98.20;;;;;;5008356;28;20460;-77
2023/02/25 01:56:57;;;;;;;1.60;1.40;;;4.40;98.20;;;;;;5007237;28;20491;-77
2023/02/25 01:59:28;;;;;;;1.60;1.30;;;4.40;98.20;;;;;;5008931;28;20460;-77
2023/02/25 02:01:56;;;;;;;1.60;1.40;;;4.40;98.20;;;;;;5008109;28;20486;-77
2023/02/25 02:04:24;;;;;;;1.70;1.60;;;4.40;98.20;;;;;;5014703;28;20461;-77
2023/02/25 02:06:52;;;;;;;1.70;1.50;;;4.40;98.20;;;;;;5007161;28;20460;-78
2023/02/25 02:09:24;;;;;;;1.70;1.40;;;4.40;98.20;;;;;;5008107;28;21048;-78
2023/02/25 02:11:51;;;;;;;1.67;1.40;;;4.40;98.20;;;;;;5008380;28;20869;-78
2023/02/25 02:14:22;;;;;;;1.70;1.47;;;4.40;98.20;;;;;;5008705;28;20456;-77
2023/02/25 02:17:05;;;;;;;1.70;1.50;;;4.40;98.20;;;;;;4994818;28;20563;-78
2023/02/25 02:19:43;;;;;;;1.70;1.40;;;4.40;98.20;;;;;;5008465;28;20841;-77
2023/02/25 02:22:16;;;;;;;1.63;1.40;;;4.40;98.20;;;;;;5008726;28;20538;-78
2023/02/25 02:25:17;;;;;;;1.70;1.30;;;4.40;98.20;;;;;;5008503;28;20468;-78
2023/02/25 02:28:26;;;;;;;1.70;1.40;;;4.40;98.20;;;;;;5000306;28;20827;-81
2023/02/25 02:31:20;;;;;;;1.70;1.40;;;4.40;98.20;;;;;;4998010;28;21182;-78
2023/02/25 02:33:53;;;;;;;1.60;1.30;;;4.40;98.20;;;;;;5007829;28;20456;-77
2023/02/25 02:36:28;;;;;;;1.70;1.50;;;4.40;98.20;;;;;;5008316;28;20491;-79
2023/02/25 02:39:04;;;;;;;1.60;1.40;;;4.40;98.20;;;;;;5016569;28;21043;-77
2023/02/25 02:41:34;;;;;;;1.70;1.40;;;4.40;98.20;;;;;;5008530;28;20480;-77
2023/02/25 02:44:07;;;;;;;1.70;1.30;;;4.40;98.20;;;;;;5007643;28;20546;-77
2023/02/25 02:46:41;;;;;;;2.97;2.77;;;4.40;98.20;;;;;;5007501;28;20470;-77
2023/02/25 02:49:13;;;;;;;1.60;1.30;;;4.40;98.20;;;;;;5007666;28;20492;-78
2023/02/25 02:51:46;;;;;;;1.70;1.50;;;4.40;98.20;;;;;;5008162;28;20496;-78
2023/02/25 02:54:15;;;;;;;1.63;1.40;;;4.40;98.20;;;;;;5000469;28;20535;-78
2023/02/25 02:56:44;;;;;;;1.63;1.40;;;4.40;98.20;;;;;;4999919;28;20493;-77
2023/02/25 02:59:17;;;;;;;1.63;1.40;;;4.40;98.20;;;;;;5006108;28;20452;-77
2023/02/25 03:01:50;;;;;;;1.67;1.30;;;4.40;98.20;;;;;;5008516;28;20521;-82
2023/02/25 03:04:23;;;;;;;1.60;1.30;;;4.30;98.20;;;;;;5001330;28;20464;-78
2023/02/25 03:06:54;;;;;;;1.70;1.50;;;4.30;98.20;;;;;;5006270;28;20949;-78
2023/02/25 03:09:29;;;;;;;1.63;1.30;;;4.40;98.20;;;;;;5008062;28;20460;-78
2023/02/25 03:11:56;;;;;;;1.63;1.40;;;4.30;98.20;;;;;;5008698;28;20476;-77
2023/02/25 03:14:23;;;;;;;1.60;1.40;;;4.40;98.20;;;;;;5001636;28;20467;-76
2023/02/25 03:16:59;;;;;;;1.60;1.40;;;4.30;98.20;;;;;;5006336;28;20460;-77
2023/02/25 03:19:29;;;;;;;1.60;1.40;;;4.30;98.20;;;;;;5007530;28;20470;-79
2023/02/25 03:22:02;;;;;;;1.70;1.50;;;4.30;98.20;;;;;;5006130;28;20487;-77
2023/02/25 03:24:34;;;;;;;1.60;1.30;;;4.30;98.20;;;;;;5002452;28;20467;-78
2023/02/25 03:27:17;;;;;;;1.60;1.30;;;4.30;98.20;;;;;;5006181;28;20471;-77
2023/02/25 03:29:44;;;;;;;1.60;1.40;;;4.30;98.20;;;;;;5005751;28;21016;-78
2023/02/25 03:32:15;;;;;;;1.70;1.40;;;4.30;98.20;;;;;;5007355;28;21019;-77
2023/02/25 03:34:47;;;;;;;1.60;1.30;;;4.30;98.20;;;;;;5008156;28;20464;-78
2023/02/25 03:37:19;;;;;;;1.67;1.40;;;4.30;98.20;;;;;;4999299;28;20558;-78
2023/02/25 03:39:50;;;;;;;1.60;1.40;;;4.30;98.20;;;;;;5008434;28;20452;-78
2023/02/25 03:42:21;;;;;;;1.70;1.50;;;4.30;98.20;;;;;;5000789;28;20480;-79
2023/02/25 03:44:51;;;;;;;1.63;1.40;;;4.30;98.20;;;;;;5006799;28;20464;-77
2023/02/25 03:47:21;;;;;;;1.63;1.30;;;4.30;98.20;;;;;;5007123;28;20466;-78
2023/02/25 03:49:54;;;;;;;1.70;1.40;;;4.30;98.20;;;;;;5007146;28;20539;-77
2023/02/25 03:52:23;;;;;;;1.70;1.53;;;4.40;98.20;;;;;;5007443;28;20587;-78
2023/02/25 03:54:51;;;;;;;1.70;1.53;;;4.40;98.20;;;;;;5006759;28;20496;-79
2023/02/25 03:57:18;;;;;;;1.63;1.30;;;4.40;98.20;;;;;;5006186;28;20460;-79
2023/02/25 03:59:45;;;;;;;1.60;1.40;;;4.40;98.20;;;;;;5007358;28;20846;-77
2023/02/25 04:02:13;;;;;;;1.60;1.30;;;4.40;98.20;;;;;;5007410;28;20484;-78
2023/02/25 04:04:42;;;;;;;1.63;1.30;;;4.40;98.20;;;;;;5007112;28;20869;-78
2023/02/25 04:07:08;;;;;;;1.70;1.40;;;4.40;98.20;;;;;;5005608;28;20464;-78
2023/02/25 04:09:35;;;;;;;1.63;1.40;;;4.30;98.20;;;;;;5008118;28;20850;-78
2023/02/25 04:12:04;;;;;;;1.67;1.30;;;4.40;98.20;;;;;;5007528;28;20484;-77
2023/02/25 04:14:31;;;;;;;1.70;1.40;;;4.40;98.20;;;;;;5007985;28;20592;-80
2023/02/25 04:16:58;;;;;;;1.67;1.40;;;4.40;98.20;;;;;;5004320;28;20552;-77
2023/02/25 04:19:25;;;;;;;1.70;1.43;;;4.40;98.20;;;;;;5007660;28;20492;-78
2023/02/25 04:21:53;;;;;;;1.60;1.30;;;4.40;98.20;;;;;;5007521;28;20863;-78
2023/02/25 04:24:20;;;;;;;1.70;1.50;;;4.40;98.20;;;;;;5008773;28;20556;-77
2023/02/25 04:26:47;;;;;;;1.70;1.50;;;4.40;98.20;;;;;;5005919;28;20472;-79
2023/02/25 04:29:14;;;;;;;1.60;1.30;;;4.40;98.20;;;;;;5005664;28;20885;-77
2023/02/25 04:31:41;;;;;;;1.60;1.30;;;4.40;98.20;;;;;;5005456;28;20483;-78
2023/02/25 04:34:08;;;;;;;1.63;1.30;;;4.40;98.20;;;;;;5006651;28;20966;-78
2023/02/25 04:36:36;;;;;;;1.60;1.30;;;4.40;98.20;;;;;;5006553;28;20472;-77
2023/02/25 04:39:05;;;;;;;1.60;1.40;;;4.40;98.20;;;;;;5006284;28;20498;-77
2023/02/25 04:41:34;;;;;;;1.70;1.40;;;4.40;98.20;;;;;;4994570;28;20484;-77
2023/02/25 04:44:02;;;;;;;1.60;1.30;;;4.40;98.20;;;;;;5002562;28;20471;-77
2023/02/25 04:46:30;;;;;;;1.70;1.50;;;4.40;98.20;;;;;;5002236;28;20458;-77
2023/02/25 04:48:57;;;;;;;1.67;1.40;;;4.40;98.20;;;;;;4999774;28;20469;-78
2023/02/25 04:51:24;;;;;;;1.63;1.30;;;4.40;98.20;;;;;;5006703;28;21061;-76
2023/02/25 04:53:51;;;;;;;1.67;1.40;;;4.40;98.20;;;;;;5003441;28;20565;-78
2023/02/25 04:56:19;;;;;;;1.70;1.40;;;4.40;98.20;;;;;;5002710;28;20468;-77
2023/02/25 04:58:47;;;;;;;1.60;1.30;;;4.40;98.20;;;;;;5000093;28;20930;-78
2023/02/25 05:01:14;;;;;;;1.70;1.40;;;4.40;98.20;;;;;;4998533;28;21083;-79
2023/02/25 05:03:42;;;;;;;1.60;1.30;;;4.40;98.20;;;;;;5005465;28;20975;-79
2023/02/25 05:06:09;;;;;;;1.67;1.40;;;4.40;98.20;;;;;;5008597;28;20499;-78
2023/02/25 05:08:40;;;;;;;1.70;1.60;;;4.40;98.20;;;;;;5003826;28;20870;-78
2023/02/25 05:11:07;;;;;;;1.60;1.30;;;4.40;98.20;;;;;;5010311;28;20488;-77
2023/02/25 05:13:36;;;;;;;1.63;1.30;;;4.40;98.20;;;;;;5006191;28;20460;-81
2023/02/25 05:16:05;;;;;;;1.60;1.30;;;4.40;98.20;;;;;;5005019;28;20518;-78
2023/02/25 05:18:32;;;;;;;1.63;1.30;;;4.40;98.20;;;;;;5008078;28;20545;-79
2023/02/25 05:20:59;;;;;;;1.70;1.40;;;4.40;98.20;;;;;;5006628;28;20981;-78
2023/02/25 05:23:26;;;;;;;1.63;1.37;;;4.40;98.20;;;;;;5012017;28;20452;-77
2023/02/25 05:25:55;;;;;;;1.67;1.40;;;4.40;98.20;;;;;;5007579;28;20464;-78
2023/02/25 05:28:22;;;;;;;1.70;1.53;;;4.40;98.20;;;;;;5004761;28;20456;-77
2023/02/25 05:30:51;;;;;;;1.60;1.33;;;4.40;98.20;;;;;;5007988;28;20530;-77
2023/02/25 05:33:18;;;;;;;1.60;1.30;;;4.40;98.20;;;;;;5009334;28;20552;-79
2023/02/25 05:35:45;;;;;;;1.70;1.40;;;4.40;98.20;;;;;;5009034;28;20543;-79
2023/02/25 05:38:12;;;;;;;1.60;1.30;;;4.40;98.20;;;;;;5006954;28;20546;-78
2023/02/25 05:40:39;;;;;;;1.70;1.50;;;4.40;98.20;;;;;;5008122;28;20483;-79
2023/02/25 05:43:06;;;;;;;1.60;1.30;;;4.40;98.20;;;;;;5009478;28;20494;-77
2023/02/25 05:45:35;;;;;;;1.60;1.40;;;4.40;98.20;;;;;;5008183;28;21000;-79
2023/02/25 05:48:03;;;;;;;1.67;1.40;;;4.40;98.20;;;;;;5006707;28;20571;-78
2023/02/25 05:50:33;;;;;;;1.70;1.60;;;4.40;98.20;;;;;;5009434;28;20467;-77
2023/02/25 05:53:00;;;;;;;1.70;1.43;;;4.40;98.20;;;;;;5004675;28;20476;-76
2023/02/25 05:55:27;;;;;;;1.70;1.47;;;4.40;98.20;;;;;;5012327;28;20472;-79
2023/02/25 05:57:54;;;;;;;1.60;1.30;;;4.40;98.20;;;;;;4998141;28;20476;-77
2023/02/25 06:00:22;;;;;;;1.60;1.30;;;4.40;98.20;;;;;;5009110;28;20969;-78
2023/02/25 06:02:49;;;;;;;1.67;1.40;;;4.40;98.20;;;;;;5009204;28;20886;-78
2023/02/25 06:05:17;;;;;;;1.70;1.50;;;4.30;98.20;;;;;;5010236;28;20460;-79
2023/02/25 06:07:44;;;;;;;1.70;1.40;;;4.40;98.20;;;;;;5007892;28;20464;-78
2023/02/25 06:10:12;;;;;;;1.70;1.43;;;4.40;98.20;;;;;;5008922;28;20522;-76
2023/02/25 06:12:39;;;;;;;1.67;1.40;;;4.40;98.20;;;;;;5009310;28;21005;-77
2023/02/25 06:15:07;;;;;;;1.67;1.43;;;4.40;98.20;;;;;;5006549;28;20556;-76
2023/02/25 06:17:35;;;;;;;1.70;1.50;;;4.40;98.20;;;;;;5005086;28;20487;-76
2023/02/25 06:20:02;;;;;;;1.70;1.37;;;4.30;98.20;;;;;;5004469;28;20561;-76
2023/02/25 06:22:31;;;;;;;1.67;1.37;;;4.30;98.20;;;;;;5007673;28;20476;-76
2023/02/25 06:24:59;;;;;;;1.63;1.33;;;4.30;98.20;;;;;;5006306;28;20464;-76
2023/02/25 06:27:26;;;;;;;1.70;1.60;;;4.30;98.20;;;;;;5003816;28;20835;-77
2023/02/25 06:29:53;;;;;;;1.70;1.50;;;4.30;98.20;;;;;;5006150;28;20459;-76
2023/02/25 06:32:20;;;;;;;1.67;1.50;;;4.30;98.20;;;;;;5008257;28;20500;-76
2023/02/25 06:34:47;;;;;;;1.67;1.43;;;4.30;98.20;;;;;;5005820;28;20499;-76
2023/02/25 06:37:14;;;;;;;1.70;1.40;;;4.30;98.20;;;;;;5009931;28;20487;-79
2023/02/25 06:39:43;;;;;;;1.63;1.40;;;4.30;98.20;;;;;;5010713;28;20495;-78
2023/02/25 06:42:10;;;;;;;1.60;1.33;;;4.30;98.20;;;;;;5003239;28;20692;-78
2023/02/25 06:44:37;;;;;;;1.70;1.53;;;4.30;98.20;;;;;;5007668;28;20827;-78
2023/02/25 06:47:04;;;;;;;1.60;1.40;;;4.30;98.20;;;;;;5005413;28;20507;-78
2023/02/25 06:49:31;;;;;;;1.60;1.40;;;4.30;98.20;;;;;;5004142;28;20480;-79
2023/02/25 06:51:59;;;;;;;1.70;1.40;;;4.30;98.20;;;;;;5005173;28;20492;-79
2023/02/25 06:54:26;;;;;;;1.63;1.30;;;4.30;98.20;;;;;;5008953;28;20764;-78
2023/02/25 06:56:55;;;;;;;1.67;1.50;;;4.30;98.20;;;;;;5005529;28;20483;-78
2023/02/25 06:59:22;;;;;;;1.60;1.30;;;4.30;98.20;;;;;;5007764;28;20487;-79
2023/02/25 07:01:50;;;;;;;1.70;1.40;;;4.30;98.20;;;;;;5005598;28;21066;-79
2023/02/25 07:04:18;;;;;;;1.63;1.40;;;4.40;98.20;;;;;;5004961;28;20463;-78
2023/02/25 07:06:46;;;;;;;1.60;1.37;;;4.40;98.20;;;;;;5005941;28;20463;-78
2023/02/25 07:09:13;;;;;;;1.70;1.40;;;4.40;98.20;;;;;;5007559;28;20462;-78
2023/02/25 07:11:41;;;;;;;1.63;1.40;;;4.40;98.20;;;;;;5007334;28;20484;-78
2023/02/25 07:14:11;;;;;;;1.67;1.30;;;4.40;98.20;;;;;;5006647;28;20464;-78
2023/02/25 07:16:37;;;;;;;1.60;1.30;;;4.50;98.20;;;;;;5006761;28;20464;-77
2023/02/25 07:19:04;;;;;;;1.70;1.40;;;4.50;98.20;;;;;;4999132;28;20488;-78
2023/02/25 07:21:32;;;;;;;1.60;1.40;;;4.50;98.20;;;;;;4993703;28;20496;-78
2023/02/25 07:23:59;;;;;;;1.60;1.30;;;4.50;98.20;;;;;;4988355;28;20555;-79
2023/02/25 07:26:27;;;;;;;1.63;1.40;;;4.50;98.20;;;;;;5000697;28;20460;-78
2023/02/25 07:28:55;;;;;;;1.60;1.30;;;4.50;98.20;;;;;;5003008;28;20460;-78
2023/02/25 07:31:25;;;;;;;1.60;1.30;;;4.50;98.20;;;;;;5007311;28;20534;-77
2023/02/25 07:33:52;;;;;;;1.63;1.37;;;4.60;98.20;;;;;;5006544;28;20461;-79
2023/02/25 07:36:19;;;;;;;1.67;1.43;;;4.60;98.20;;;;;;5006820;28;20476;-78
2023/02/25 07:38:47;;;;;;;1.60;1.40;;;4.60;98.20;;;;;;4996200;28;20764;-79
2023/02/25 07:41:16;;;;;;;1.60;1.30;;;4.60;98.20;;;;;;5005274;28;20484;-79
2023/02/25 07:43:43;;;;;;;1.67;1.30;;;4.70;98.20;;;;;;5006518;28;20857;-78
2023/02/25 07:46:11;;;;;;;1.70;1.40;;;4.70;98.20;;;;;;5005175;28;20465;-78
2023/02/25 07:48:40;;;;;;;1.63;1.30;;;4.70;98.20;;;;;;5007148;28;20471;-78
2023/02/25 07:51:08;;;;;;;1.63;1.40;;;4.70;98.20;;;;;;5006894;28;21004;-78
2023/02/25 07:53:35;;;;;;;1.63;1.30;;;4.80;98.20;;;;;;5006390;28;20464;-79
2023/02/25 07:56:02;;;;;;;1.60;1.30;;;4.80;98.20;;;;;;5005344;28;20823;-80
2023/02/25 07:58:28;;;;;;;1.63;1.43;;;4.80;98.20;;;;;;5007136;28;20830;-79
2023/02/25 08:00:55;;;;;;;1.60;1.20;;;4.90;98.20;;;;;;5005424;28;20490;-79
2023/02/25 08:03:22;;;;;;;1.60;1.30;;;4.90;98.20;;;;;;5005496;28;20475;-80
2023/02/25 08:05:53;;;;;;;1.60;1.20;;;5.00;98.20;;;;;;5007638;28;20457;-79
2023/02/25 08:08:20;;;;;;;1.60;1.40;;;5.10;98.20;;;;;;5001446;28;20495;-78
2023/02/25 08:10:46;;;;;;;1.70;1.30;;;5.30;98.20;;;;;;5008572;28;20898;-80
2023/02/25 08:13:13;;;;;;;1.70;1.40;;;5.40;98.20;;;;;;5007358;28;20459;-79
2023/02/25 08:15:41;;;;;;;1.60;1.30;;;5.40;98.20;;;;;;5005313;28;20460;-79
2023/02/25 08:18:08;;;;;;;1.60;1.30;;;5.50;98.20;;;;;;4999321;28;20467;-78
2023/02/25 08:20:35;;;;;;;1.60;1.30;;;5.40;98.20;;;;;;5007976;28;20491;-79
2023/02/25 08:23:05;;;;;;;1.63;1.33;;;5.40;98.20;;;;;;5006269;28;20964;-78
2023/02/25 08:25:31;;;;;;;1.67;1.30;;;5.40;98.20;;;;;;5006362;28;20461;-79
2023/02/25 08:27:58;;;;;;;1.70;1.40;;;5.40;98.20;;;;;;5003250;28;20491;-79
2023/02/25 08:30:26;;;;;;;1.60;1.30;;;5.40;98.20;;;;;;5000251;28;20772;-79
2023/02/25 08:32:53;;;;;;;1.63;1.40;;;5.30;98.20;;;;;;5006478;28;20467;-79
2023/02/25 08:35:20;;;;;;;1.63;1.30;;;5.30;98.20;;;;;;5000755;28;20460;-78
2023/02/25 08:37:46;;;;;;;1.70;1.40;;;5.40;98.20;;;;;;5000246;28;21104;-79
2023/02/25 08:40:15;;;;;;;1.70;1.40;;;5.40;98.20;;;;;;5005808;28;20495;-77
2023/02/25 08:42:42;;;;;;;1.67;1.40;;;5.40;98.20;;;;;;5005039;28;20767;-77
2023/02/25 08:45:09;;;;;;;1.67;1.40;;;5.50;98.20;;;;;;5005474;28;20460;-77
2023/02/25 08:47:37;;;;;;;1.70;1.43;;;5.50;98.20;;;;;;5004935;28;20507;-77
2023/02/25 08:50:04;;;;;;;1.63;1.40;;;5.60;98.20;;;;;;5006658;28;20464;-76
2023/02/25 08:52:32;;;;;;;1.70;1.40;;;5.70;98.20;;;;;;5004089;28;20497;-77
2023/02/25 08:55:00;;;;;;;1.67;1.30;;;5.60;98.20;;;;;;5007442;28;20949;-77
2023/02/25 08:57:29;;;;;;;1.70;1.40;;;5.60;98.20;;;;;;5007524;28;20460;-77
2023/02/25 08:59:55;;;;;;;1.60;1.30;;;5.60;98.20;;;;;;5006758;28;20487;-77
2023/02/25 09:02:23;;;;;;;1.70;1.30;;;5.50;98.20;;;;;;5001697;28;21139;-77
2023/02/25 09:04:51;;;;;;;1.60;1.30;;;5.40;98.20;;;;;;5005202;28;20491;-79
2023/02/25 09:07:20;;;;;;;2.20;2.00;;;5.40;98.20;;;;;;5008444;28;20468;-76
2023/02/25 09:09:48;;;;;;;1.60;1.30;;;5.40;98.20;;;;;;5013666;28;20460;-77
2023/02/25 09:12:17;;;;;;;1.60;1.30;;;5.30;98.20;;;;;;5002487;28;20475;-76
2023/02/25 09:14:49;;;;;;;1.60;1.30;;;5.30;98.20;;;;;;4999205;28;20463;-80
2023/02/25 09:17:20;;;;;;;1.60;1.40;;;5.40;98.20;;;;;;5001505;28;20558;-77
2023/02/25 09:19:49;;;;;;;1.60;1.30;;;5.40;98.20;;;;;;5001892;28;20484;-77
2023/02/25 09:22:18;;;;;;;1.67;1.30;;;5.40;98.20;;;;;;5010132;28;20862;-77
2023/02/25 09:24:45;;;;;;;1.60;1.20;;;5.40;98.20;;;;;;5001808;28;20468;-77
2023/02/25 09:27:12;;;;;;;1.60;1.30;;;5.50;98.20;;;;;;4989053;28;20465;-77
2023/02/25 09:29:40;;;;;;;1.60;1.30;;;5.60;98.20;;;;;;5003947;28;20464;-78
2023/02/25 09:32:18;;;;;;;1.60;1.20;;;5.60;98.20;;;;;;5008414;28;20653;-78
2023/02/25 09:34:45;;;;;;;1.60;1.20;;;5.70;98.20;;;;;;5006372;28;20471;-78
2023/02/25 09:37:13;;;;;;;1.70;1.40;;;5.80;98.20;;;;;;5007374;28;20472;-78
2023/02/25 09:39:41;;;;;;;1.67;1.33;;;5.80;98.20;;;;;;5004996;28;20495;-78
2023/02/25 09:42:11;;;;;;;1.60;1.30;;;5.90;98.20;;;;;;5009023;28;20484;-78
2023/02/25 09:44:42;;;;;;;1.70;1.50;;;5.90;98.20;;;;;;5006578;28;20892;-78
2023/02/25 09:47:18;;;;;;;1.67;1.40;;;5.90;98.20;;;;;;5003924;28;20510;-78
2023/02/25 09:49:50;;;;;;;1.60;1.30;;;6.00;98.20;;;;;;5008717;28;20463;-80
2023/02/25 09:52:22;;;;;;;1.60;1.30;;;6.00;98.20;;;;;;5008940;28;20917;-79
2023/02/25 09:54:55;;;;;;;1.63;1.30;;;6.20;98.20;;;;;;5008685;28;20466;-78
2023/02/25 09:57:23;;;;;;;1.60;1.30;;;6.30;98.20;;;;;;5005432;28;20465;-79
2023/02/25 09:59:53;;;;;;;1.67;1.30;;;6.40;98.20;;;;;;5007040;28;20492;-78
2023/02/25 10:02:29;;;;;;;1.67;1.30;;;6.50;98.20;;;;;;5005673;28;20545;-79
2023/02/25 10:05:13;;;;;;;1.60;1.30;;;6.50;98.20;;;;;;5006075;28;21140;-78
2023/02/25 10:07:48;;;;;;;1.67;1.30;;;6.60;98.20;;;;;;5004599;28;20459;-77
2023/02/25 10:10:21;;;;;;;1.70;1.30;;;6.70;98.20;;;;;;5006980;28;20464;-77
2023/02/25 10:12:55;;;;;;;1.60;1.20;;;6.60;98.20;;;;;;5007780;28;20467;-78
2023/02/25 10:15:32;;;;;;;1.60;1.30;;;6.60;98.20;;;;;;5009330;28;20459;-80
2023/02/25 10:18:28;;;;;;;1.63;1.30;;;6.70;98.20;;;;;;5002575;28;20463;-79
2023/02/25 10:21:22;;;;;;;1.67;1.30;;;6.80;98.20;;;;;;5003698;28;20492;-77
2023/02/25 10:24:03;;;;;;;1.70;1.43;;;6.90;98.20;;;;;;5003191;28;20544;-78
2023/02/25 10:26:38;;;;;;;1.60;1.30;;;7.10;98.20;;;;;;5013502;28;21009;-78
2023/02/25 10:29:08;;;;;;;1.67;1.30;;;7.10;98.20;;;;;;4997182;28;20556;-78
2023/02/25 10:31:44;;;;;;;1.70;1.30;;;7.20;98.20;;;;;;4999331;28;20569;-76
2023/02/25 10:34:21;;;;;;;1.63;1.30;;;7.10;98.20;;;;;;5003404;28;21090;-77
2023/02/25 10:36:54;;;;;;;1.60;1.30;;;6.90;98.20;;;;;;5000477;28;20500;-76
2023/02/25 10:39:22;;;;;;;1.67;1.30;;;6.70;98.20;;;;;;4999829;28;20570;-76
2023/02/25 10:41:49;;;;;;;1.67;1.33;;;6.60;98.20;;;;;;5002524;28;20579;-76
2023/02/25 10:44:17;;;;;;;1.60;1.30;;;6.40;98.20;;;;;;4999088;28;20462;-75
2023/02/25 10:46:54;;;;;;;1.60;1.20;;;6.10;98.20;;;;;;5007262;28;21043;-78
2023/02/25 10:49:25;;;;;;;1.60;1.20;;;5.90;98.20;;;;;;5005826;28;20495;-76
2023/02/25 10:52:03;;;;;;;1.60;1.27;;;5.60;98.20;;;;;;5000670;28;20488;-75
2023/02/25 10:54:33;;;;;;;1.63;1.30;;;5.20;98.20;;;;;;5003804;28;21047;-78
2023/02/25 10:57:02;;;;;;;1.60;1.30;;;4.90;98.20;;;;;;4998974;28;20999;-76
2023/02/25 10:59:32;;;;;;;1.60;1.30;;;4.70;98.20;;;;;;5000167;28;20508;-76
2023/02/25 11:19:21;;;;;;;1.70;1.30;;;4.30;98.20;;;;;;4996598;28;20469;-78
2023/02/25 11:21:48;;;;;;;1.60;1.40;;;4.50;98.20;;;;;;4999395;28;20484;-77
2023/02/25 11:24:18;;;;;;;1.60;1.30;;;4.60;98.20;;;;;;5001447;28;20568;-77
2023/02/25 11:26:49;;;;;;;1.60;1.30;;;4.80;98.20;;;;;;4996564;28;20475;-77
2023/02/25 11:29:20;;;;;;;1.70;1.47;;;4.80;98.20;;;;;;4996539;28;20826;-78
2023/02/25 11:31:50;;;;;;;1.70;1.40;;;5.00;98.20;;;;;;4998145;28;20868;-78
2023/02/25 11:34:22;;;;;;;1.60;1.30;;;5.20;98.20;;;;;;5000145;28;20464;-78
2023/02/25 11:36:49;;;;;;;1.60;1.30;;;5.60;98.20;;;;;;4999275;28;20467;-77
2023/02/25 11:39:20;;;;;;;1.60;1.30;;;6.10;98.20;;;;;;5002220;28;20975;-79
2023/02/25 11:41:48;;;;;;;1.60;1.20;;;6.50;98.20;;;;;;4999811;28;20492;-80
2023/02/25 11:44:29;;;;;;;1.70;1.30;;;6.90;98.20;;;;;;5001580;28;20454;-80
2023/02/25 11:47:04;;;;;;;1.70;1.30;;;7.20;98.20;;;;;;4997227;28;20471;-81
2023/02/25 11:49:49;;;;;;;1.63;1.30;;;7.50;98.20;;;;;;5002800;28;20474;-79
2023/02/25 11:52:24;;;;;;;1.63;1.23;;;7.80;98.20;;;;;;5001456;28;20747;-79
2023/02/25 11:55:10;;;;;;;1.60;1.20;;;8.00;98.20;;;;;;5000960;28;20839;-82
2023/02/25 12:00:58;;;;;;;1.60;1.30;;;8.30;98.20;;;;;;4985634;28;20535;-81
2023/02/25 12:03:57;;;;;;;1.60;1.10;;;8.50;98.20;;;;;;4998310;28;20479;-77
2023/02/25 12:06:45;;;;;;;1.60;1.20;;;8.80;98.20;;;;;;4994097;28;20475;-79
2023/02/25 12:09:44;;;;;;;1.60;1.20;;;9.00;98.20;;;;;;4996587;28;20479;-79
2023/02/25 12:12:33;;;;;;;1.63;1.20;;;9.00;98.20;;;;;;4996779;28;20492;-80
2023/02/25 12:15:35;;;;;;;1.70;1.30;;;9.10;98.20;;;;;;4995828;28;20611;-80
2023/02/25 12:18:41;;;;;;;1.63;1.17;;;8.90;98.20;;;;;;4961141;28;20464;-78
2023/02/25 12:21:42;;;;;;;1.63;1.20;;;9.00;98.20;;;;;;4998953;28;20499;-79
2023/02/25 12:24:42;;;;;;;1.60;1.17;;;9.20;98.20;;;;;;4996997;28;20934;-78
2023/02/25 12:27:39;;;;;;;1.67;1.20;;;9.20;98.20;;;;;;4995389;28;20468;-77
2023/02/25 12:30:43;;;;;;;1.60;1.10;;;9.40;98.20;;;;;;5000903;28;20461;-78
2023/02/25 12:33:25;;;;;;;1.60;1.10;;;9.40;98.20;;;;;;4999591;28;20551;-81
2023/02/25 12:36:14;;;;;;;1.60;1.27;;;9.20;98.20;;;;;;5001723;28;20731;-78
2023/02/25 12:39:06;;;;;;;1.60;1.20;;;9.20;98.20;;;;;;5000531;28;20546;-76
2023/02/25 12:41:47;;;;;;;1.60;1.10;;;9.10;98.20;;;;;;4999084;28;20578;-77
2023/02/25 12:44:46;;;;;;;2.03;1.83;;;9.10;98.20;;;;;;5000079;28;20470;-77
2023/02/25 12:47:23;;;;;;;1.60;1.20;;;9.30;98.20;;;;;;5002920;28;20775;-77
2023/02/25 12:50:13;;;;;;;1.60;1.10;;;9.40;98.20;;;;;;5000681;28;20493;-76
2023/02/25 12:52:52;;;;;;;1.60;1.10;;;9.70;98.20;;;;;;5001207;28;20516;-76
2023/02/25 12:55:41;;;;;;;1.60;1.17;;;10.00;98.20;;;;;;5001790;28;20473;-76
2023/02/25 12:58:33;;;;;;;1.60;1.10;;;9.80;94.10;;;;;;4996302;28;20969;-77
2023/02/25 13:01:21;;;;;;;1.60;1.10;;;9.30;97.80;;;;;;5000763;28;20522;-76
2023/02/25 13:04:20;;;;;;;1.60;1.10;;;8.80;95.40;;;;;;5004581;28;20541;-77
2023/02/25 13:07:02;;;;;;;1.60;1.10;;;8.30;98.20;;;;;;4997395;28;20744;-78
2023/02/25 13:10:11;;;;;;;1.60;1.20;;;7.90;98.20;;;;;;5003651;28;20471;-76
2023/02/25 13:12:56;;;;;;;1.60;1.10;;;7.60;98.20;;;;;;4998667;28;20958;-76
2023/02/25 13:15:33;;;;;;;1.60;1.17;;;7.60;98.20;;;;;;5000095;28;20979;-76
2023/02/25 13:18:22;;;;;;;1.57;1.10;;;7.80;98.20;;;;;;5001032;28;20656;-76
2023/02/25 13:21:14;;;;;;;1.60;1.30;;;8.10;98.20;;;;;;5004494;28;20491;-76
2023/02/25 13:24:00;;;;;;;1.60;1.17;;;8.20;98.20;;;;;;5003886;28;20476;-76
2023/02/25 13:26:48;;;;;;;1.60;1.20;;;8.40;98.10;;;;;;4999347;28;20468;-77
2023/02/25 13:29:39;;;;;;;1.60;1.10;;;8.70;98.20;;;;;;4999520;28;20463;-77
2023/02/25 13:32:28;;;;;;;1.60;1.20;;;8.80;95.50;;;;;;4997742;28;20488;-76
2023/02/25 13:35:15;;;;;;;1.60;1.10;;;8.90;96.90;;;;;;5003914;28;20460;-77
2023/02/25 13:37:53;;;;;;;1.60;1.10;;;9.00;95.10;;;;;;5000670;28;21172;-78
2023/02/25 13:40:42;;;;;;;1.60;1.10;;;9.10;93.00;;;;;;4999158;28;20574;-78
2023/02/25 13:43:43;;;;;;;1.60;1.17;;;9.00;91.70;;;;;;4998229;28;20464;-77